Time;durP1;ratioP1;P1;durP2;ratioP2;P2;SDS_P1;SDS_P2;PMS_P1;PMS_P2;Temp;Humidity;BMP_temperature;BMP_pressure;BME280_temperature;BME280_humidity;BME280_pressure;Samples;Min_cycle;Max_cycle;Signal;HPM_P1;HPM_P2
2022/09/01 00:01:48;;;;;;;1.40;1.30;;;;;;;24.83;49.08;94881.50;5051172;28;20303;-66
2022/09/01 00:04:18;;;;;;;2.37;1.50;;;;;;;24.83;49.11;94881.50;5064934;28;20200;-64
2022/09/01 00:06:47;;;;;;;3.83;1.90;;;;;;;24.76;49.29;94881.31;5063204;28;20686;-65
2022/09/01 00:09:17;;;;;;;0.57;0.30;;;;;;;24.84;49.25;94880.38;5042936;28;20296;-65
2022/09/01 00:11:48;;;;;;;1.20;1.13;;;;;;;24.77;49.32;94879.41;5059587;28;20647;-66
2022/09/01 00:14:19;;;;;;;1.43;1.33;;;;;;;24.61;49.30;94879.38;5055206;28;20200;-62
2022/09/01 00:17:02;;;;;;;1.70;1.60;;;;;;;24.74;49.29;94878.19;5071593;28;20772;-60
2022/09/01 00:19:29;;;;;;;1.37;1.27;;;;;;;24.68;49.33;94868.84;5056889;28;20202;-65
2022/09/01 00:21:56;;;;;;;1.00;1.00;;;;;;;24.61;49.52;94874.03;5048190;28;20201;-63
2022/09/01 00:24:24;;;;;;;1.50;1.40;;;;;;;24.67;49.44;94872.63;5051446;28;20677;-62
2022/09/01 00:26:53;;;;;;;0.83;0.83;;;;;;;24.45;49.55;94872.44;5060733;28;20220;-63
2022/09/01 00:29:21;;;;;;;2.33;1.23;;;;;;;24.67;49.18;94875.31;5065110;28;20663;-65
2022/09/01 00:31:49;;;;;;;1.27;1.17;;;;;;;24.68;48.87;94868.84;5054086;28;20194;-66
2022/09/01 00:34:16;;;;;;;1.13;1.13;;;;;;;24.62;49.17;94864.06;5044444;28;20286;-64
2022/09/01 00:36:43;;;;;;;1.20;1.13;;;;;;;24.51;49.43;94877.19;5043564;28;20192;-66
2022/09/01 00:39:11;;;;;;;6.03;2.20;;;;;;;24.54;49.11;94873.81;5070708;28;20203;-65
2022/09/01 00:41:43;;;;;;;1.37;1.20;;;;;;;24.50;49.17;94872.97;5050465;28;20193;-62
2022/09/01 00:44:14;;;;;;;2.33;1.33;;;;;;;24.50;49.25;94883.69;5062636;28;20223;-63
2022/09/01 00:46:46;;;;;;;1.80;1.70;;;;;;;24.32;49.79;94890.47;5060020;28;20734;-64
2022/09/01 00:49:25;;;;;;;1.03;1.03;;;;;;;24.27;49.63;94890.69;5055558;28;20233;-63
2022/09/01 00:51:57;;;;;;;2.80;1.57;;;;;;;24.15;50.17;94898.00;5031909;28;20204;-63
2022/09/01 00:54:30;;;;;;;1.40;1.07;;;;;;;23.95;50.29;94891.69;5058418;28;20200;-65
2022/09/01 00:56:57;;;;;;;4.57;1.83;;;;;;;24.13;49.97;94895.66;5037206;28;20192;-62
2022/09/01 00:59:25;;;;;;;4.03;1.70;;;;;;;24.22;50.14;94893.63;5054663;28;20234;-62
2022/09/01 01:01:54;;;;;;;0.60;0.60;;;;;;;24.19;49.62;94888.94;5047892;28;20193;-61
2022/09/01 01:04:22;;;;;;;2.97;2.57;;;;;;;24.25;49.68;94892.16;5062541;28;20200;-64
2022/09/01 01:07:01;;;;;;;1.83;1.17;;;;;;;24.35;49.42;94897.81;5061010;28;20199;-64
2022/09/01 01:09:35;;;;;;;0.80;0.80;;;;;;;24.32;49.33;94903.84;5039012;28;20234;-65
2022/09/01 01:12:04;;;;;;;1.63;1.53;;;;;;;24.09;50.12;94894.78;5068577;28;20203;-62
2022/09/01 01:14:35;;;;;;;1.00;1.00;;;;;;;23.97;50.40;94908.19;5050624;28;20290;-62
2022/09/01 01:17:03;;;;;;;0.77;0.77;;;;;;;23.97;50.58;94908.19;5047312;28;20207;-64
2022/09/01 01:23:06;;;;;;;0.50;0.50;;;;;;;24.20;49.61;94901.22;5057336;28;20207;-63
2022/09/01 01:25:37;;;;;;;1.00;0.90;;;;;;;24.07;49.93;94897.00;5058100;28;20199;-62
2022/09/01 01:28:08;;;;;;;3.80;1.20;;;;;;;23.79;50.20;94899.66;5051451;28;20205;-62
2022/09/01 01:30:38;;;;;;;1.90;1.80;;;;;;;23.77;50.21;94909.91;5058049;28;20226;-63
2022/09/01 01:33:06;;;;;;;1.47;1.13;;;;;;;23.70;50.70;94908.91;5052553;28;20216;-63
2022/09/01 01:35:36;;;;;;;1.20;1.10;;;;;;;23.81;50.60;94904.66;5048231;28;20279;-65
2022/09/01 01:38:06;;;;;;;1.20;1.20;;;;;;;23.45;51.91;94899.34;5064870;28;20295;-61
2022/09/01 01:40:36;;;;;;;0.50;0.50;;;;;;;23.66;51.05;94902.66;5048283;28;20573;-63
2022/09/01 01:43:04;;;;;;;1.53;1.10;;;;;;;23.65;50.78;94895.78;5047881;28;20240;-63
2022/09/01 01:45:31;;;;;;;0.87;0.87;;;;;;;24.03;50.06;94909.53;5067972;28;20203;-60
2022/09/01 01:48:00;;;;;;;0.83;0.83;;;;;;;23.97;50.18;94908.19;5045896;28;20300;-65
2022/09/01 01:50:34;;;;;;;0.73;0.73;;;;;;;23.97;49.94;94908.97;5044180;28;20212;-63
2022/09/01 01:53:04;;;;;;;1.67;1.00;;;;;;;23.79;50.09;94914.91;5058431;28;20624;-61
2022/09/01 01:55:40;;;;;;;0.50;0.50;;;;;;;23.67;50.38;94917.59;5051457;28;20215;-62
2022/09/01 01:58:10;;;;;;;0.87;0.70;;;;;;;23.96;49.76;94922.66;5059190;28;20207;-63
2022/09/01 02:00:38;;;;;;;0.90;0.90;;;;;;;23.77;50.29;94919.81;5067621;28;20310;-65
2022/09/01 02:03:06;;;;;;;2.10;1.63;;;;;;;23.85;50.50;94926.91;5084558;28;20944;-64
2022/09/01 02:05:35;;;;;;;0.73;0.73;;;;;;;24.02;49.74;94926.69;5048857;28;20307;-63
2022/09/01 02:08:07;;;;;;;0.70;0.70;;;;;;;23.92;49.98;94921.81;5045785;28;20194;-67
2022/09/01 02:10:41;;;;;;;1.27;1.03;;;;;;;24.01;49.77;94920.56;5039040;28;20249;-66
2022/09/01 02:13:14;;;;;;;1.27;1.17;;;;;;;23.94;49.89;94920.31;5055618;28;20271;-62
2022/09/01 02:15:48;;;;;;;0.87;0.87;;;;;;;24.06;49.53;94922.22;5057980;28;20671;-65
2022/09/01 02:18:29;;;;;;;0.73;0.73;;;;;;;24.10;49.34;94931.16;5055299;28;20205;-65
2022/09/01 02:20:59;;;;;;;1.33;1.23;;;;;;;23.88;49.41;94931.63;5047122;28;20568;-61
2022/09/01 02:23:27;;;;;;;0.70;0.70;;;;;;;23.78;50.03;94926.72;5057365;28;20192;-63
2022/09/01 02:26:01;;;;;;;1.53;1.37;;;;;;;23.62;50.24;94932.00;5063623;28;20206;-65
2022/09/01 02:28:48;;;;;;;1.37;1.27;;;;;;;23.66;49.92;94932.09;5039312;28;20211;-64
2022/09/01 02:31:28;;;;;;;0.87;0.87;;;;;;;23.71;49.94;94916.59;5072384;28;20193;-63
2022/09/01 02:33:59;;;;;;;0.53;0.53;;;;;;;23.84;49.49;94926.16;5052706;28;20345;-65
2022/09/01 02:36:27;;;;;;;0.93;0.93;;;;;;;23.38;50.16;94907.94;5055799;28;20208;-64
2022/09/01 02:38:54;;;;;;;1.10;1.10;;;;;;;23.77;49.29;94923.28;5047007;28;20255;-62
2022/09/01 02:41:26;;;;;;;1.43;0.70;;;;;;;23.59;50.07;94919.28;5065084;28;20205;-65
2022/09/01 02:43:53;;;;;;;2.17;1.97;;;;;;;23.70;49.62;94916.94;5077811;28;20242;-64
2022/09/01 02:46:22;;;;;;;3.73;1.80;;;;;;;23.87;49.09;94912.09;5038483;28;20201;-65
2022/09/01 02:48:51;;;;;;;1.20;1.20;;;;;;;23.66;49.24;94908.81;5030935;28;20201;-67
2022/09/01 02:51:24;;;;;;;1.23;1.17;;;;;;;23.63;49.42;94914.06;5045368;28;20261;-64
2022/09/01 02:53:52;;;;;;;1.13;1.00;;;;;;;23.63;49.51;94911.38;5055012;28;20262;-62
2022/09/01 02:56:21;;;;;;;0.40;0.40;;;;;;;23.79;48.91;94912.25;5038604;28;20224;-63
2022/09/01 02:58:53;;;;;;;1.23;1.07;;;;;;;23.44;49.66;94900.47;5065838;28;20200;-64
2022/09/01 03:01:28;;;;;;;0.90;0.90;;;;;;;23.64;49.71;94904.91;5060608;28;20199;-61
2022/09/01 03:04:02;;;;;;;0.53;0.53;;;;;;;23.59;49.21;94902.47;5067622;28;20200;-62
2022/09/01 03:06:33;;;;;;;2.53;1.33;;;;;;;23.62;49.39;94904.44;5060976;28;20207;-63
2022/09/01 03:09:01;;;;;;;0.70;0.70;;;;;;;23.42;49.60;94902.69;5070392;28;20285;-67
2022/09/01 03:11:30;;;;;;;0.83;0.83;;;;;;;23.51;49.64;94900.69;5070337;28;20207;-63
2022/09/01 03:13:57;;;;;;;0.93;0.93;;;;;;;23.61;48.90;94905.59;5056469;28;20211;-64
2022/09/01 03:16:24;;;;;;;1.47;1.03;;;;;;;23.07;49.90;94903.09;5071891;28;20188;-64
2022/09/01 03:18:51;;;;;;;2.60;1.33;;;;;;;23.44;49.04;94911.16;5056684;28;20656;-62
2022/09/01 03:21:19;;;;;;;1.10;1.00;;;;;;;23.49;48.84;94908.25;5038213;28;20200;-65
2022/09/01 03:23:49;;;;;;;0.97;0.93;;;;;;;23.28;49.91;94908.38;5067117;28;20196;-65
2022/09/01 03:26:19;;;;;;;1.40;1.20;;;;;;;23.35;49.34;94913.16;5056510;28;20196;-66
2022/09/01 03:28:49;;;;;;;1.93;1.67;;;;;;;23.39;49.75;94908.72;5059914;28;20200;-60
2022/09/01 03:31:18;;;;;;;0.90;0.83;;;;;;;23.42;49.43;94905.38;5054125;28;20243;-66
2022/09/01 03:33:47;;;;;;;1.07;1.07;;;;;;;23.54;49.08;94908.03;5059780;28;20233;-59
2022/09/01 03:36:23;;;;;;;0.83;0.70;;;;;;;23.49;48.88;94902.91;5064034;28;20211;-61
2022/09/01 03:38:51;;;;;;;0.87;0.87;;;;;;;23.35;49.07;94907.81;5070211;28;20203;-64
2022/09/01 03:41:23;;;;;;;0.80;0.80;;;;;;;23.27;49.39;94911.34;5052637;28;20239;-64
2022/09/01 03:43:56;;;;;;;6.53;1.33;;;;;;;23.33;48.99;94915.41;5049850;28;20232;-63
2022/09/01 03:46:29;;;;;;;1.10;1.10;;;;;;;23.33;48.99;94920.75;5052487;28;20195;-64
2022/09/01 03:49:05;;;;;;;1.50;1.17;;;;;;;23.17;49.55;94925.16;5051384;28;20192;-61
2022/09/01 03:51:36;;;;;;;1.53;1.43;;;;;;;23.28;48.99;94918.28;5046428;28;20211;-65
2022/09/01 03:54:05;;;;;;;1.27;1.17;;;;;;;23.22;49.28;94914.25;5048834;28;20214;-63
2022/09/01 03:56:32;;;;;;;1.17;1.13;;;;;;;23.11;49.54;94920.03;5045549;28;20196;-61
2022/09/01 03:58:59;;;;;;;1.17;1.07;;;;;;;22.98;50.10;94915.78;5051232;28;20663;-62
2022/09/01 04:01:33;;;;;;;1.10;0.97;;;;;;;22.97;49.86;94919.56;5037740;28;20297;-62
2022/09/01 04:04:01;;;;;;;1.83;1.73;;;;;;;22.98;50.09;94910.44;5063910;28;20207;-61
2022/09/01 04:06:31;;;;;;;2.63;2.00;;;;;;;23.02;50.18;94916.69;5060552;28;20200;-61
2022/09/01 04:09:01;;;;;;;5.47;1.97;;;;;;;22.98;50.14;94915.00;5050873;28;20199;-62
2022/09/01 04:11:33;;;;;;;4.60;1.43;;;;;;;22.91;50.13;94926.25;5057241;28;20196;-64
2022/09/01 04:14:01;;;;;;;0.97;0.93;;;;;;;23.31;49.27;94926.44;5054163;28;20200;-63
2022/09/01 04:19:25;;;;;;;3.37;2.60;;;;;;;23.32;49.62;94930.66;5041201;28;20251;-63
2022/09/01 04:22:01;;;;;;;0.50;0.50;;;;;;;23.29;49.25;94922.50;5069690;28;20581;-63
2022/09/01 04:24:41;;;;;;;5.87;1.60;;;;;;;23.13;49.72;94917.81;5036820;28;20689;-60
2022/09/01 04:27:12;;;;;;;1.30;1.20;;;;;;;23.03;49.94;94926.25;5064990;28;20207;-62
2022/09/01 04:29:40;;;;;;;3.87;1.80;;;;;;;23.16;49.66;94920.94;5052443;28;20219;-63
2022/09/01 04:32:11;;;;;;;1.10;1.10;;;;;;;23.10;49.96;94918.47;5050787;28;20205;-64
2022/09/01 04:34:42;;;;;;;1.70;1.17;;;;;;;22.96;50.11;94918.03;5065543;28;20199;-62
2022/09/01 04:37:18;;;;;;;0.97;0.97;;;;;;;23.12;50.09;94920.81;5069097;28;20199;-63
2022/09/01 04:39:51;;;;;;;4.10;1.50;;;;;;;23.22;49.65;94914.25;5055263;28;20203;-63
2022/09/01 04:42:25;;;;;;;1.37;1.03;;;;;;;23.12;49.90;94910.91;5048925;28;20639;-63
2022/09/01 04:44:56;;;;;;;1.60;1.50;;;;;;;22.85;50.86;94921.44;5062186;28;20211;-63
2022/09/01 04:47:28;;;;;;;2.33;1.93;;;;;;;23.01;50.35;94920.47;5070891;28;20204;-64
2022/09/01 04:50:12;;;;;;;0.83;0.83;;;;;;;23.13;50.43;94923.16;5032878;28;20674;-64
2022/09/01 04:53:04;;;;;;;5.30;2.00;;;;;;;22.60;51.66;94915.28;5059022;28;20199;-63
2022/09/01 04:55:42;;;;;;;1.17;1.10;;;;;;;22.83;51.42;94924.44;5057348;28;20209;-65
2022/09/01 04:58:12;;;;;;;1.30;1.23;;;;;;;22.32;54.02;94924.16;5039142;28;20794;-66
2022/09/01 05:00:39;;;;;;;4.53;3.23;;;;;;;22.67;52.82;94920.84;5079181;28;20207;-66
2022/09/01 05:03:08;;;;;;;1.40;1.30;;;;;;;22.76;52.59;94924.22;5064089;28;20651;-65
2022/09/01 05:05:59;;;;;;;0.97;0.97;;;;;;;22.99;51.55;94919.25;5065150;28;20192;-66
2022/09/01 05:08:27;;;;;;;0.67;0.67;;;;;;;22.92;52.05;94914.44;5036221;28;20193;-66
2022/09/01 05:11:04;;;;;;;1.93;1.83;;;;;;;23.02;51.29;94922.03;5061406;28;20231;-67
2022/09/01 05:13:38;;;;;;;1.33;1.17;;;;;;;23.05;51.63;94924.03;5061371;28;20204;-67
2022/09/01 05:16:11;;;;;;;1.87;1.70;;;;;;;23.21;51.29;94908.13;5035016;28;20228;-63
2022/09/01 05:18:46;;;;;;;0.50;0.50;;;;;;;23.12;51.48;94921.59;5061351;28;20203;-66
2022/09/01 05:21:20;;;;;;;1.93;1.83;;;;;;;23.20;51.58;94916.47;5035064;28;20204;-64
2022/09/01 05:23:49;;;;;;;2.17;1.83;;;;;;;23.06;52.13;94917.56;5059539;28;20239;-67
2022/09/01 05:26:22;;;;;;;9.73;6.80;;;;;;;23.47;51.75;94910.47;5037305;28;20199;-67
2022/09/01 05:28:55;;;;;;;18.67;13.10;;;;;;;23.76;51.13;94912.88;5067041;28;20230;-66
2022/09/01 05:31:24;;;;;;;4.90;4.40;;;;;;;23.69;50.95;94918.03;5059223;28;20224;-65
2022/09/01 05:33:51;;;;;;;1.60;1.50;;;;;;;23.37;51.67;94921.63;5063816;28;20192;-66
2022/09/01 05:36:22;;;;;;;1.87;1.40;;;;;;;23.26;52.39;94920.50;5064975;28;20208;-63
2022/09/01 05:38:51;;;;;;;1.67;1.57;;;;;;;23.28;52.42;94918.28;5061573;28;20227;-65
2022/09/01 05:41:19;;;;;;;1.63;1.53;;;;;;;23.33;52.31;94904.69;5059630;28;20689;-62
2022/09/01 05:43:50;;;;;;;1.77;1.67;;;;;;;23.59;51.87;94913.16;5047882;28;21049;-63
2022/09/01 05:46:26;;;;;;;1.57;1.20;;;;;;;23.26;52.29;94907.13;5058056;28;20290;-63
2022/09/01 05:48:56;;;;;;;1.13;1.13;;;;;;;23.57;51.80;94907.38;5055197;28;20223;-62
2022/09/01 05:51:25;;;;;;;1.90;1.77;;;;;;;23.24;52.75;94907.47;5040660;28;20225;-64
2022/09/01 05:54:13;;;;;;;4.10;2.00;;;;;;;23.48;51.63;94896.00;5069333;28;20760;-63
2022/09/01 05:56:43;;;;;;;6.07;2.60;;;;;;;23.70;51.14;94915.03;5041711;28;20197;-65
2022/09/01 05:59:14;;;;;;;3.63;2.13;;;;;;;23.56;51.45;94911.13;5051703;28;20223;-65
2022/09/01 06:01:56;;;;;;;2.23;2.03;;;;;;;23.69;50.79;94904.66;5064790;28;20212;-63
2022/09/01 06:04:25;;;;;;;1.80;1.70;;;;;;;23.67;51.30;94912.25;5054704;28;20322;-64
2022/09/01 06:06:59;;;;;;;1.03;1.03;;;;;;;23.80;50.76;94911.09;5053763;28;20729;-64
2022/09/01 06:09:41;;;;;;;1.47;1.27;;;;;;;23.79;51.15;94906.88;5068241;28;20287;-64
2022/09/01 06:12:16;;;;;;;3.20;2.20;;;;;;;23.77;51.33;94903.75;5067089;28;20235;-64
2022/09/01 06:14:47;;;;;;;1.17;1.17;;;;;;;23.95;50.71;94891.69;5053081;28;20295;-65
2022/09/01 06:17:23;;;;;;;2.43;1.50;;;;;;;23.84;50.89;94887.91;5052246;28;20200;-65
2022/09/01 06:19:54;;;;;;;3.30;1.57;;;;;;;24.19;50.17;94899.66;5088838;28;20209;-64
2022/09/01 06:22:23;;;;;;;1.27;1.20;;;;;;;24.45;49.41;94897.31;5071509;28;20290;-64
2022/09/01 06:24:53;;;;;;;7.93;2.97;;;;;;;24.25;50.07;94892.91;5058537;28;20193;-66
2022/09/01 06:27:31;;;;;;;2.43;2.23;;;;;;;24.17;50.81;94901.09;5047643;28;20196;-63
2022/09/01 06:29:58;;;;;;;2.27;1.50;;;;;;;24.06;50.54;94895.47;5072722;28;20227;-65
2022/09/01 06:32:25;;;;;;;4.27;2.33;;;;;;;23.95;51.09;94894.34;5088411;28;20299;-64
2022/09/01 06:34:56;;;;;;;2.43;2.10;;;;;;;23.95;51.33;94905.84;5037765;28;20288;-63
2022/09/01 06:37:24;;;;;;;7.43;1.50;;;;;;;24.13;50.97;94903.69;5064130;28;20701;-65
2022/09/01 06:39:56;;;;;;;3.60;2.33;;;;;;;24.43;50.43;94902.25;5057257;28;20191;-64
2022/09/01 06:42:23;;;;;;;3.77;1.67;;;;;;;24.63;49.37;94887.84;5047926;28;20224;-65
2022/09/01 06:44:56;;;;;;;4.90;2.60;;;;;;;24.05;51.05;94883.97;5056269;28;20562;-68
2022/09/01 06:47:23;;;;;;;17.00;2.10;;;;;;;24.25;50.62;94876.84;5071356;28;20292;-64
2022/09/01 06:49:50;;;;;;;5.47;1.50;;;;;;;24.26;51.19;94893.72;5052340;28;20195;-62
2022/09/01 06:52:24;;;;;;;3.33;3.03;;;;;;;24.63;49.46;94887.06;5050009;28;20592;-65
2022/09/01 06:54:53;;;;;;;1.37;1.27;;;;;;;24.72;49.38;94875.09;5055422;28;20205;-69
2022/09/01 06:57:21;;;;;;;1.30;1.20;;;;;;;24.62;49.13;94885.50;5058564;28;20196;-66
2022/09/01 07:00:16;;;;;;;3.13;1.93;;;;;;;24.33;50.30;94883.97;5043322;28;20198;-64
2022/09/01 07:03:08;;;;;;;5.23;3.03;;;;;;;24.53;50.13;94887.56;5052011;28;20188;-64
2022/09/01 07:05:50;;;;;;;3.27;1.87;;;;;;;24.00;51.71;94899.47;5066858;28;20204;-64
2022/09/01 07:08:48;;;;;;;2.50;2.03;;;;;;;23.80;53.05;94900.41;5067085;28;20299;-63
2022/09/01 07:11:37;;;;;;;1.53;1.43;;;;;;;24.39;51.47;94893.31;5070380;28;20289;-63
2022/09/01 07:14:26;;;;;;;5.90;2.00;;;;;;;24.79;50.43;94891.34;5054533;28;20578;-64
2022/09/01 07:16:54;;;;;;;1.77;1.67;;;;;;;24.03;52.29;94890.81;5067639;28;20196;-63
2022/09/01 07:19:43;;;;;;;2.97;2.03;;;;;;;24.36;51.32;94883.28;5031213;28;20197;-63
2022/09/01 07:22:17;;;;;;;1.87;1.67;;;;;;;24.06;52.52;94887.44;5044377;28;20204;-66
2022/09/01 07:25:11;;;;;;;4.77;2.50;;;;;;;24.59;50.42;94878.16;5050064;28;20559;-65
2022/09/01 07:28:00;;;;;;;1.90;1.73;;;;;;;24.62;51.67;94880.13;5041172;28;20213;-65
2022/09/01 07:30:30;;;;;;;2.27;2.07;;;;;;;24.49;51.02;94871.38;5038696;28;20750;-64
2022/09/01 07:32:58;;;;;;;1.37;1.23;;;;;;;24.70;51.07;94877.34;5046282;28;20205;-64
2022/09/01 07:35:46;;;;;;;2.07;1.97;;;;;;;25.39;48.75;94875.97;5064476;28;20571;-68
2022/09/01 07:38:33;;;;;;;1.13;1.13;;;;;;;25.06;50.41;94879.00;5053831;28;20184;-65
2022/09/01 07:41:23;;;;;;;4.93;2.20;;;;;;;25.85;47.79;94877.75;5067065;28;20197;-65
2022/09/01 07:44:19;;;;;;;1.33;1.23;;;;;;;26.07;46.54;94879.78;5046704;28;20225;-63
2022/09/01 07:47:28;;;;;;;1.67;1.40;;;;;;;26.55;46.09;94876.47;5061019;28;20215;-68
2022/09/01 07:50:15;;;;;;;5.07;3.13;;;;;;;25.80;46.74;94883.41;5058334;28;20203;-64
2022/09/01 07:53:03;;;;;;;1.67;1.57;;;;;;;26.23;46.41;94866.28;5067202;28;20283;-66
2022/09/01 07:55:31;;;;;;;3.67;3.13;;;;;;;26.24;45.87;94876.66;5058982;28;20189;-66
2022/09/01 07:58:01;;;;;;;1.93;1.83;;;;;;;25.55;47.15;94882.06;5040105;28;20200;-66
2022/09/01 08:00:30;;;;;;;1.37;1.27;;;;;;;25.82;48.12;94873.84;5055215;28;20248;-66
2022/09/01 08:03:02;;;;;;;1.10;1.10;;;;;;;26.07;48.18;94877.09;5050311;28;20225;-66
2022/09/01 08:05:30;;;;;;;1.83;1.73;;;;;;;26.48;46.79;94881.72;5061543;28;20192;-67
2022/09/01 08:07:57;;;;;;;1.57;1.47;;;;;;;27.09;45.47;94879.00;5055243;28;20196;-66
2022/09/01 08:10:30;;;;;;;1.40;1.37;;;;;;;27.22;44.46;94879.59;5062660;28;20223;-65
2022/09/01 08:12:58;;;;;;;2.70;2.23;;;;;;;26.93;44.35;94881.81;5054856;28;20201;-67
2022/09/01 08:15:25;;;;;;;1.70;1.37;;;;;;;26.57;44.94;94874.22;5046610;28;20292;-67
2022/09/01 08:18:13;;;;;;;2.67;2.40;;;;;;;26.74;44.60;94876.50;5031402;28;20603;-66
2022/09/01 08:20:44;;;;;;;2.03;1.93;;;;;;;26.66;44.86;94863.25;5061707;28;20636;-66
2022/09/01 08:23:30;;;;;;;2.30;2.10;;;;;;;27.22;45.38;94863.44;5051046;28;20203;-67
2022/09/01 08:25:57;;;;;;;6.13;3.23;;;;;;;27.09;46.14;94870.16;5051985;28;20238;-65
2022/09/01 08:28:24;;;;;;;3.67;2.73;;;;;;;27.38;45.50;94861.41;5069455;28;20196;-65
2022/09/01 08:30:55;;;;;;;5.73;3.63;;;;;;;27.55;42.71;94839.38;5055514;28;20618;-66
2022/09/01 08:33:25;;;;;;;3.87;2.03;;;;;;;27.79;42.77;94852.41;5036987;28;20709;-67
2022/09/01 08:35:52;;;;;;;1.93;1.60;;;;;;;28.16;42.97;94853.25;5069157;28;20223;-66
2022/09/01 08:38:20;;;;;;;1.47;1.37;;;;;;;28.52;42.51;94851.75;5068581;28;20211;-65
2022/09/01 08:40:54;;;;;;;2.93;2.10;;;;;;;28.39;43.18;94853.94;5070264;28;20192;-64
2022/09/01 08:44:13;;;;;;;2.80;2.60;;;;;;;28.79;41.55;94840.50;5044020;28;20287;-65
2022/09/01 08:46:42;;;;;;;1.27;1.10;;;;;;;28.87;41.16;94844.00;5064215;28;20713;-69
2022/09/01 08:49:18;;;;;;;1.37;1.27;;;;;;;29.12;40.47;94849.66;5060771;28;20639;-66
2022/09/01 08:52:21;;;;;;;3.00;1.13;;;;;;;28.89;41.18;94837.09;5044251;28;20231;-65
2022/09/01 08:54:56;;;;;;;2.27;1.97;;;;;;;29.21;40.73;94842.00;5067196;28;20224;-67
2022/09/01 08:57:31;;;;;;;5.93;3.07;;;;;;;28.88;39.75;94824.78;5049000;28;20201;-67
2022/09/01 09:00:22;;;;;;;3.00;2.63;;;;;;;29.49;40.17;94836.81;5064043;28;20203;-65
2022/09/01 09:02:58;;;;;;;1.43;1.40;;;;;;;29.51;39.01;94829.09;5065190;28;20594;-65
2022/09/01 09:05:42;;;;;;;2.57;2.00;;;;;;;28.90;40.70;94827.84;5037066;28;20637;-66
2022/09/01 09:08:44;;;;;;;3.73;2.73;;;;;;;29.97;38.79;94813.94;5060398;28;20203;-66
2022/09/01 09:11:57;;;;;;;1.47;1.37;;;;;;;30.38;38.05;94812.53;5029861;28;20253;-66
2022/09/01 09:14:33;;;;;;;3.43;2.30;;;;;;;30.70;37.29;94807.97;5063461;28;20196;-66
2022/09/01 09:17:03;;;;;;;0.53;0.53;;;;;;;30.58;36.95;94816.44;5063440;28;20214;-66
2022/09/01 09:19:33;;;;;;;3.00;1.30;;;;;;;29.94;37.08;94812.00;5069523;28;20830;-68
2022/09/01 09:22:04;;;;;;;0.60;0.60;;;;;;;30.27;36.88;94806.38;5057810;28;20188;-66
2022/09/01 09:24:54;;;;;;;0.70;0.70;;;;;;;30.71;36.89;94808.75;5049880;28;20283;-67
2022/09/01 09:27:31;;;;;;;2.03;1.77;;;;;;;30.23;37.53;94805.53;5049922;28;20223;-66
2022/09/01 09:30:22;;;;;;;1.50;1.37;;;;;;;30.30;37.10;94805.59;5057458;28;20582;-67
2022/09/01 09:32:49;;;;;;;2.77;1.93;;;;;;;30.17;36.12;94796.25;5038211;28;20200;-67
2022/09/01 09:35:43;;;;;;;1.33;1.13;;;;;;;30.73;36.45;94790.97;5049783;28;20193;-66
2022/09/01 09:38:20;;;;;;;3.03;2.70;;;;;;;31.13;35.90;94797.94;5068377;28;20832;-69
2022/09/01 09:41:03;;;;;;;5.80;4.60;;;;;;;31.94;34.78;94792.41;5056820;28;20199;-66
2022/09/01 09:44:04;;;;;;;2.90;1.80;;;;;;;31.27;34.41;94794.47;5039040;28;20232;-67
2022/09/01 09:46:31;;;;;;;1.50;1.40;;;;;;;31.29;34.46;94784.81;5053422;28;20203;-68
2022/09/01 09:49:19;;;;;;;1.80;1.57;;;;;;;30.86;35.16;94784.06;5069283;28;20203;-67
2022/09/01 09:52:00;;;;;;;3.07;2.57;;;;;;;31.54;34.54;94782.06;5035627;28;20254;-68
2022/09/01 09:54:30;;;;;;;1.47;1.37;;;;;;;31.93;33.72;94774.63;5061904;28;20191;-67
2022/09/01 09:57:16;;;;;;;1.40;1.27;;;;;;;31.45;34.98;94781.69;5039495;28;20656;-66
2022/09/01 09:59:55;;;;;;;1.10;1.00;;;;;;;31.17;34.51;94781.75;5039130;28;20201;-66
2022/09/01 10:02:34;;;;;;;1.33;0.80;;;;;;;31.83;34.27;94780.81;5029517;28;20193;-68
2022/09/01 10:05:22;;;;;;;3.10;2.57;;;;;;;32.20;33.04;94775.66;5041716;28;20210;-67
2022/09/01 10:07:50;;;;;;;0.83;0.83;;;;;;;31.77;32.53;94779.66;5042739;28;20295;-68
2022/09/01 10:10:28;;;;;;;8.93;1.40;;;;;;;31.50;32.49;94778.59;5029234;28;20250;-67
2022/09/01 10:12:56;;;;;;;1.43;1.33;;;;;;;31.84;32.45;94771.53;5029449;28;20973;-68
2022/09/01 10:15:31;;;;;;;1.23;1.13;;;;;;;31.47;31.61;94766.63;5056222;28;20254;-67
2022/09/01 10:18:27;;;;;;;2.10;1.37;;;;;;;31.35;32.05;94767.00;5042425;28;20191;-65
2022/09/01 10:21:07;;;;;;;0.87;0.87;;;;;;;31.83;31.06;94764.56;5034512;28;20644;-69
2022/09/01 10:23:37;;;;;;;1.47;1.30;;;;;;;32.04;30.88;94761.78;5050951;28;20299;-66
2022/09/01 10:26:36;;;;;;;1.23;1.03;;;;;;;32.14;30.19;94758.25;5047973;28;20240;-69
2022/09/01 10:29:13;;;;;;;3.13;1.47;;;;;;;31.82;30.54;94768.44;5057098;28;20191;-66
2022/09/01 10:31:42;;;;;;;0.80;0.80;;;;;;;31.49;31.36;94760.81;5044340;28;20725;-68
2022/09/01 10:34:15;;;;;;;1.43;1.33;;;;;;;31.05;32.02;94769.38;5055650;28;20196;-69
2022/09/01 10:36:47;;;;;;;1.10;1.10;;;;;;;30.58;33.00;94759.66;5043895;28;20202;-67
2022/09/01 10:39:22;;;;;;;2.77;1.80;;;;;;;30.92;32.69;94753.91;5054779;28;20655;-67
2022/09/01 10:42:06;;;;;;;2.03;0.97;;;;;;;31.10;32.89;94754.66;5043272;28;20197;-68
2022/09/01 10:44:53;;;;;;;2.60;2.30;;;;;;;30.97;33.27;94756.25;5036502;28;20242;-69
2022/09/01 10:47:29;;;;;;;2.40;1.37;;;;;;;31.24;33.61;94749.22;5049124;28;20211;-68
2022/09/01 10:50:00;;;;;;;0.63;0.63;;;;;;;31.24;34.13;94754.66;5053143;28;20672;-66
2022/09/01 10:52:42;;;;;;;1.77;1.67;;;;;;;31.23;34.44;94755.78;5039439;28;20238;-68
2022/09/01 10:55:25;;;;;;;1.87;1.57;;;;;;;30.68;34.28;94745.38;5051517;28;20215;-66
2022/09/01 10:58:32;;;;;;;3.10;1.43;;;;;;;31.00;33.63;94750.03;5040683;28;20368;-68
2022/09/01 11:01:38;;;;;;;0.83;0.83;;;;;;;31.20;33.61;94753.88;5050678;28;20196;-67
2022/09/01 11:04:20;;;;;;;1.90;0.90;;;;;;;31.39;32.76;94739.94;5038511;28;20200;-69
2022/09/01 11:06:53;;;;;;;1.53;1.33;;;;;;;31.24;34.17;94733.75;5080810;28;20188;-67
2022/09/01 11:09:43;;;;;;;1.40;1.30;;;;;;;31.45;33.78;94732.94;5048925;28;20192;-66
2022/09/01 11:12:21;;;;;;;2.10;1.57;;;;;;;31.24;32.87;94728.31;5071272;28;20310;-68
2022/09/01 11:15:01;;;;;;;1.33;1.03;;;;;;;31.58;32.82;94720.53;5061980;28;20629;-68
2022/09/01 11:17:54;;;;;;;27.47;2.13;;;;;;;31.57;32.52;94722.47;5055411;28;20682;-66
2022/09/01 11:20:28;;;;;;;2.33;1.27;;;;;;;31.79;32.83;94717.72;5039961;28;20632;-66
2022/09/01 11:23:03;;;;;;;10.60;3.17;;;;;;;31.93;32.22;94728.53;5060325;28;20197;-68
2022/09/01 11:25:44;;;;;;;3.30;1.27;;;;;;;31.59;32.51;94722.06;5036202;28;20201;-67
2022/09/01 11:28:15;;;;;;;1.27;1.17;;;;;;;31.28;32.42;94722.91;5043529;28;20203;-66
2022/09/01 11:31:13;;;;;;;11.73;1.57;;;;;;;31.90;31.84;94710.34;5071468;28;20203;-67
2022/09/01 11:34:17;;;;;;;2.47;1.50;;;;;;;32.22;31.52;94710.19;5040794;28;20716;-67
2022/09/01 11:36:46;;;;;;;1.67;1.57;;;;;;;32.54;31.31;94700.66;5044157;28;20261;-69
2022/09/01 11:39:13;;;;;;;2.30;1.57;;;;;;;32.07;31.15;94704.06;5059679;28;20205;-66
2022/09/01 11:41:45;;;;;;;1.63;0.87;;;;;;;32.40;31.00;94689.91;5051466;28;20680;-67
2022/09/01 11:44:25;;;;;;;1.30;1.20;;;;;;;32.41;31.94;94686.00;5052400;28;20235;-69
2022/09/01 11:47:01;;;;;;;1.27;1.13;;;;;;;32.28;31.61;94689.63;5033343;28;20700;-66
2022/09/01 11:49:32;;;;;;;1.83;1.40;;;;;;;32.73;31.07;94681.16;5057914;28;20193;-69
2022/09/01 11:52:01;;;;;;;1.43;1.33;;;;;;;32.53;31.60;94672.00;5043651;28;20782;-68
2022/09/01 11:54:36;;;;;;;1.30;1.20;;;;;;;32.88;31.30;94667.44;5071612;28;20241;-67
2022/09/01 11:57:37;;;;;;;1.90;1.50;;;;;;;33.18;31.38;94667.53;5043824;28;20639;-67
2022/09/01 12:00:08;;;;;;;1.43;1.33;;;;;;;33.81;31.48;94674.19;5080641;28;20293;-66
2022/09/01 12:02:49;;;;;;;2.27;1.67;;;;;;;33.27;31.35;94665.09;5044763;28;20621;-69
2022/09/01 12:05:37;;;;;;;1.60;1.33;;;;;;;33.63;30.16;94666.28;5057823;28;20231;-65
2022/09/01 12:08:17;;;;;;;3.50;2.37;;;;;;;34.04;30.07;94661.47;5062451;28;20242;-68
2022/09/01 12:10:49;;;;;;;2.43;2.23;;;;;;;33.54;30.18;94658.59;5061189;28;20244;-65
2022/09/01 12:13:22;;;;;;;1.90;1.27;;;;;;;32.75;31.57;94665.22;5041695;28;20237;-66
2022/09/01 12:15:59;;;;;;;2.23;1.40;;;;;;;33.02;31.26;94659.94;5053837;28;20702;-69
2022/09/01 12:18:50;;;;;;;0.90;0.90;;;;;;;33.65;31.27;94656.53;5071444;28;20196;-66